Weather History for Ionia, MI

Change the Weather History Date:

Monday, February 18, 2013

  Actual Average (KGRR) Record (KGRR)
Temperature  
Mean Temperature 35 °F 27 °F  
Max Temperature 47 °F 34 °F 56 °F (2011)
Min Temperature 23 °F 20 °F -10 °F (1936)
Degree Days  
Heating Degree Days 30 38  
Month to date heating degree days 706  
Since 1 July heating degree days 4413  
Cooling Degree Days 0 0  
Month to date cooling degree days 0  
Year to date cooling degree days 0  
Moisture  
Dew Point 22 °F    
Average Humidity 57    
Maximum Humidity 80    
Minimum Humidity 43    
Precipitation  
Precipitation 0.01 in 0.06 in 0.80 in (1976)
Month to date precipitation 1.07  
Year to date precipitation 3.16  
Snow  
Snow 0.00 in 0.50 in 7.00 in (1926)
Month to date snowfall 10.0  
Since 1 July snowfall 60.0  
Snow Depth -    
Sea Level Pressure  
Sea Level Pressure 29.82 in    
Wind  
Wind Speed 13 mph (SSE)    
Max Wind Speed 21 mph    
Max Gust Speed 31 mph    
Visibility 10 miles    
Events Rain    
T = Trace of Precipitation, MM = Missing Value Source: NWS Daily Summary

Daily Weather History Graph

Daily Weather History Graph

Search for Another Location

Airport:

Trip Planner

Search our weather history database for the weather conditions in past years. The results will help you decide how hot, cold, wet, or windy it might be!

Date:

Astronomy

Feb. 18, 2013 Rise Set
Actual Time 7:32 AM EST 6:15 PM EST
Civil Twilight 7:04 AM EST 6:44 PM EST
Nautical Twilight 6:31 AM EST 7:17 PM EST
Astronomical Twilight 5:58 AM EST 7:50 PM EST
Moon 11:57 AM EST (2/18) 2:16 AM EST (2/18)
Length of Visible Light 11h 40m
Length of Day
10h 43m
First Quarter, 58% of the Moon is Illuminated
Feb 18
First Quarter
Feb 25
Full
Mar 4
Last Quarter
Mar 11
New
Mar 19
First Quarter

Hourly Weather History & Observations

Time (EST) Temp. Windchill Dew Point Humidity Pressure Visibility Wind Dir Wind Speed Gust Speed Precip Events Conditions
12:13 AM 23.2 °F 13.3 °F 11.3 °F 60% 30.11 in 10.0 mi SSE 9.2 mph - N/A   Clear
12:34 AM 23.5 °F 13.7 °F 11.8 °F 61% 30.11 in 10.0 mi SSE 9.2 mph - N/A   Clear
12:53 AM 23.9 °F 13.5 °F 11.7 °F 60% 30.11 in 10.0 mi SSE 10.4 mph - N/A   Clear
1:13 AM 23.9 °F 14.2 °F 12.0 °F 61% 30.12 in 10.0 mi SSE 9.2 mph - N/A   Clear
1:33 AM 23.9 °F 14.2 °F 12.0 °F 61% 30.12 in 10.0 mi SSE 9.2 mph - N/A   Clear
1:53 AM 24.4 °F 14.9 °F 12.2 °F 60% 30.11 in 10.0 mi SSE 9.2 mph - N/A   Clear
2:13 AM 24.8 °F 15.3 °F 12.4 °F 59% 30.09 in 10.0 mi SSE 9.2 mph - N/A   Mostly Cloudy
2:33 AM 25.2 °F 15.1 °F 12.4 °F 58% 30.09 in 10.0 mi South 10.4 mph - N/A   Mostly Cloudy
2:53 AM 25.7 °F 16.4 °F 11.8 °F 56% 30.09 in 10.0 mi South 9.2 mph - N/A   Scattered Clouds
3:13 AM 25.5 °F 14.3 °F 12.7 °F 58% 30.07 in 10.0 mi SSE 12.7 mph - N/A   Clear
3:33 AM 25.5 °F 14.9 °F 13.1 °F 59% 30.08 in 10.0 mi SSE 11.5 mph - N/A   Clear
3:53 AM 25.7 °F 17.1 °F 13.1 °F 59% 30.07 in 10.0 mi SSE 8.1 mph - N/A   Mostly Cloudy
4:13 AM 25.9 °F 15.3 °F 13.6 °F 60% 30.05 in 10.0 mi SSE 11.5 mph - N/A   Overcast
4:33 AM 26.4 °F 16.0 °F 13.5 °F 58% 30.04 in 10.0 mi SSE 11.5 mph - N/A   Overcast
4:53 AM 26.6 °F 15.7 °F 13.1 °F 57% 30.03 in 10.0 mi SSE 12.7 mph - N/A   Overcast
5:13 AM 27.0 °F 15.6 °F 12.9 °F 56% 30.02 in 10.0 mi SSE 13.8 mph - N/A   Overcast
5:33 AM 27.5 °F 16.8 °F 12.7 °F 54% 30.02 in 10.0 mi SSE 12.7 mph - N/A   Overcast
5:53 AM 27.5 °F 17.4 °F 12.6 °F 54% 30.00 in 10.0 mi SSE 11.5 mph 19.6 mph N/A   Overcast
6:13 AM 27.1 °F 15.4 °F 12.6 °F 54% 29.98 in 10.0 mi SSE 15.0 mph 19.6 mph N/A   Scattered Clouds
6:33 AM 27.0 °F 15.6 °F 12.7 °F 55% 29.97 in 10.0 mi SSE 13.8 mph - N/A   Clear
6:53 AM 26.6 °F 15.2 °F 12.7 °F 56% 29.96 in 10.0 mi SSE 13.8 mph - N/A   Clear
7:13 AM 26.6 °F 14.3 °F 12.7 °F 56% 29.94 in 10.0 mi SSE 16.1 mph - N/A   Clear
7:33 AM 27.0 °F 16.1 °F 12.7 °F 55% 29.94 in 10.0 mi SSE 12.7 mph - N/A   Clear
7:53 AM 27.3 °F 15.2 °F 12.7 °F 54% 29.93 in 10.0 mi SSE 16.1 mph 20.7 mph N/A   Clear
8:13 AM 28.0 °F 17.5 °F 13.1 °F 54% 29.92 in 10.0 mi SSE 12.7 mph - N/A   Clear
8:33 AM 28.6 °F 16.0 °F 13.1 °F 52% 29.91 in 10.0 mi SSE 18.4 mph 25.3 mph N/A   Clear
8:53 AM 29.5 °F 18.0 °F 13.5 °F 51% 29.91 in 10.0 mi SSE 16.1 mph - N/A   Clear
9:13 AM 31.3 °F 20.3 °F 14.2 °F 49% 29.90 in 10.0 mi SSE 16.1 mph - N/A   Clear
9:33 AM 32.0 °F 20.5 °F 14.5 °F 49% 29.89 in 10.0 mi SSE 18.4 mph 23.0 mph N/A   Clear
9:53 AM 32.7 °F 21.8 °F 14.7 °F 48% 29.88 in 10.0 mi SSE 17.3 mph 21.9 mph N/A   Clear
10:13 AM 33.8 °F 23.9 °F 15.3 °F 47% 29.87 in 10.0 mi SSE 15.0 mph 20.7 mph N/A   Clear
10:33 AM 34.7 °F 26.4 °F 16.0 °F 46% 29.87 in 10.0 mi South 11.5 mph - N/A   Clear
10:53 AM 35.6 °F 26.6 °F 16.2 °F 45% 29.86 in 10.0 mi South 13.8 mph 19.6 mph N/A   Clear
11:13 AM 36.7 °F 27.2 °F 16.2 °F 43% 29.85 in 10.0 mi South 16.1 mph 23.0 mph N/A   Clear
11:33 AM 38.3 °F 29.7 °F 17.8 °F 44% 29.84 in 10.0 mi South 15.0 mph 21.9 mph N/A   Clear
11:53 AM 38.8 °F 29.7 °F 18.1 °F 43% 29.83 in 10.0 mi South 17.3 mph 21.9 mph N/A   Clear
12:13 PM 39.4 °F 30.7 °F 19.4 °F 45% 29.82 in 10.0 mi South 16.1 mph - N/A   Clear
12:33 PM 40.3 °F 32.2 °F 19.9 °F 44% 29.81 in 10.0 mi South 15.0 mph - N/A   Clear
12:53 PM 41.0 °F 32.5 °F 20.5 °F 44% 29.80 in 10.0 mi SSE 17.3 mph - N/A   Clear
1:13 PM 42.3 °F 35.1 °F 20.8 °F 43% 29.78 in 10.0 mi South 13.8 mph 21.9 mph N/A   Clear
1:33 PM 43.5 °F 36.1 °F 22.6 °F 44% 29.77 in 10.0 mi South 16.1 mph 19.6 mph N/A   Clear
1:53 PM 43.9 °F 37.5 °F 23.4 °F 44% 29.76 in 10.0 mi South 12.7 mph 20.7 mph N/A   Clear
2:13 PM 43.7 °F 35.4 °F 23.9 °F 46% 29.73 in 10.0 mi South 19.6 mph - N/A   Clear
2:33 PM 44.1 °F 35.9 °F 24.4 °F 46% 29.71 in 10.0 mi South 19.6 mph 26.5 mph N/A   Clear
2:53 PM 44.6 °F 37.4 °F 25.5 °F 47% 29.70 in 10.0 mi South 16.1 mph 24.2 mph N/A   Clear
3:13 PM 45.3 °F 38.7 °F 26.1 °F 47% 29.69 in 10.0 mi South 15.0 mph 20.7 mph N/A   Clear
3:33 PM 45.5 °F 38.3 °F 26.2 °F 47% 29.68 in 10.0 mi South 17.3 mph - N/A   Clear
3:53 PM 45.9 °F 38.8 °F 26.8 °F 47% 29.69 in 10.0 mi South 17.3 mph 20.7 mph N/A   Clear
4:13 PM 46.0 °F 39.6 °F 27.1 °F 48% 29.68 in 10.0 mi South 15.0 mph 21.9 mph N/A   Clear
4:33 PM 46.4 °F 40.1 °F 27.5 °F 48% 29.67 in 10.0 mi South 15.0 mph 20.7 mph N/A   Clear
4:53 PM 45.9 °F 40.0 °F 28.4 °F 51% 29.67 in 10.0 mi South 12.7 mph 18.4 mph N/A   Clear
5:13 PM 46.4 °F 40.4 °F 29.7 °F 52% 29.66 in 10.0 mi South 13.8 mph 18.4 mph N/A   Mostly Cloudy
5:33 PM 46.6 °F - 30.2 °F 53% 29.65 in 10.0 mi South 16.1 mph - N/A   Overcast
5:53 PM 46.4 °F 40.1 °F 30.2 °F 53% 29.65 in 10.0 mi SSE 15.0 mph - N/A   Overcast
6:13 PM 45.3 °F 38.7 °F 31.1 °F 58% 29.65 in 10.0 mi SSE 15.0 mph - N/A   Overcast
6:33 PM 44.1 °F 37.4 °F 32.0 °F 63% 29.64 in 10.0 mi SSE 13.8 mph - N/A   Light Drizzle
6:53 PM 43.7 °F 37.3 °F 32.0 °F 63% 29.64 in 10.0 mi SSE 12.7 mph - N/A   Overcast
7:13 PM 44.1 °F 37.7 °F 32.9 °F 65% 29.63 in 10.0 mi South 12.7 mph - N/A   Drizzle
7:33 PM 46.6 °F - 38.5 °F 73% 29.62 in 10.0 mi South 17.3 mph 25.3 mph N/A Rain Rain
7:53 PM 46.8 °F - 40.3 °F 78% 29.61 in 10.0 mi South 18.4 mph 26.5 mph N/A Rain Rain
8:13 PM 46.4 °F 39.8 °F 40.5 °F 80% 29.60 in 10.0 mi South 16.1 mph 25.3 mph N/A   Overcast
8:33 PM 46.4 °F 40.1 °F 40.5 °F 80% 29.59 in 10.0 mi South 15.0 mph 20.7 mph N/A   Drizzle
8:53 PM 46.4 °F 39.5 °F 40.5 °F 80% 29.58 in 10.0 mi South 17.3 mph 24.2 mph N/A Rain Rain
9:13 PM 47.5 °F - 39.2 °F 73% 29.56 in 10.0 mi South 18.4 mph 25.3 mph N/A Rain Rain
9:33 PM 47.7 °F - 38.5 °F 70% 29.55 in 10.0 mi South 18.4 mph 25.3 mph N/A   Drizzle
9:53 PM 47.5 °F - 38.3 °F 70% 29.55 in 10.0 mi South 19.6 mph 28.8 mph N/A   Light Drizzle
10:13 PM 47.1 °F - 38.7 °F 72% 29.53 in 10.0 mi South 19.6 mph 26.5 mph N/A Rain Light Rain
10:33 PM 46.8 °F - 39.0 °F 74% 29.52 in 10.0 mi South 16.1 mph 23.0 mph N/A Rain Rain
10:53 PM 46.9 °F - 38.7 °F 73% 29.51 in 10.0 mi South 19.6 mph 27.6 mph N/A   Light Drizzle
11:13 PM 47.3 °F - 38.1 °F 70% 29.49 in 10.0 mi South 18.4 mph 25.3 mph N/A   Overcast
11:33 PM 47.1 °F - 38.3 °F 71% 29.48 in 10.0 mi South 20.7 mph 31.1 mph 0.01 in Rain Light Rain
11:53 PM 46.6 °F - 38.5 °F 73% 29.46 in 10.0 mi South 18.4 mph 27.6 mph 0.01 in Rain Light Rain